createdAt,value
2022-08-25T00:06:51.530Z,22.03
2022-08-25T00:16:58.572Z,22.03
2022-08-25T00:27:05.388Z,22.00
2022-08-25T00:37:11.776Z,22.00
2022-08-25T00:47:18.789Z,21.96
2022-08-25T00:57:33.987Z,21.97
2022-08-25T01:07:43.498Z,21.95
2022-08-25T01:17:56.773Z,21.80
2022-08-25T01:28:03.456Z,21.91
2022-08-25T01:38:09.992Z,21.95
2022-08-25T01:48:17.080Z,21.93
2022-08-25T01:58:26.211Z,21.99
2022-08-25T02:08:32.556Z,22.00
2022-08-25T02:18:38.892Z,22.04
2022-08-25T02:28:45.911Z,22.02
2022-08-25T02:38:52.313Z,22.02
2022-08-25T02:48:59.194Z,21.96
2022-08-25T02:59:05.815Z,21.93
2022-08-25T03:09:12.297Z,21.97
2022-08-25T03:19:19.343Z,21.92
2022-08-25T03:29:30.856Z,21.89
2022-08-25T03:39:37.238Z,21.88
2022-08-25T03:49:43.561Z,21.80
2022-08-25T03:59:49.900Z,21.75
2022-08-25T04:09:57.350Z,21.75
2022-08-25T04:20:03.846Z,21.80
2022-08-25T04:30:11.133Z,21.79
2022-08-25T04:40:17.660Z,21.86
2022-08-25T04:50:24.052Z,21.95
2022-08-25T05:00:30.437Z,22.04
2022-08-25T05:10:41.055Z,22.51
2022-08-25T05:20:48.811Z,22.86
2022-08-25T05:31:00.260Z,23.21
2022-08-25T05:41:09.068Z,23.54
2022-08-25T05:51:16.252Z,24.31
2022-08-25T06:01:46.687Z,24.59
2022-08-25T06:11:55.143Z,25.36
2022-08-25T06:22:01.840Z,26.00
2022-08-25T06:32:08.226Z,26.74
2022-08-25T06:42:14.582Z,26.94
2022-08-25T06:52:20.986Z,26.85
2022-08-25T07:02:28.104Z,27.78
2022-08-25T07:12:35.702Z,27.15
2022-08-25T07:22:42.604Z,27.56
2022-08-25T07:32:55.145Z,28.16
2022-08-25T07:43:04.667Z,28.12
2022-08-25T07:53:12.754Z,27.23
2022-08-25T08:03:42.198Z,29.99
2022-08-25T08:13:48.601Z,29.92
2022-08-25T08:23:59.123Z,30.40
2022-08-25T08:34:05.971Z,31.27
2022-08-25T08:44:39.428Z,30.40
2022-08-25T08:54:47.680Z,31.75
2022-08-25T09:04:59.144Z,32.19
2022-08-25T09:15:55.315Z,32.30
2022-08-25T09:26:25.239Z,31.68
2022-08-25T09:36:37.273Z,32.13
2022-08-25T09:46:56.644Z,33.10
2022-08-25T09:57:03.364Z,32.37
2022-08-25T10:07:26.695Z,32.68
2022-08-25T10:17:34.003Z,31.77
2022-08-25T10:27:46.472Z,32.02
2022-08-25T10:38:03.575Z,32.13
2022-08-25T10:48:28.626Z,31.85
2022-08-25T10:58:55.830Z,32.42
2022-08-25T11:09:05.720Z,31.61
2022-08-25T11:19:44.357Z,32.13
2022-08-25T11:29:58.563Z,32.91
2022-08-25T11:40:16.116Z,31.82
2022-08-25T11:50:35.175Z,33.78
2022-08-25T12:00:44.097Z,33.26
2022-08-25T12:10:53.323Z,32.40
2022-08-25T12:21:03.501Z,32.11
2022-08-25T12:31:25.381Z,32.29
2022-08-25T12:41:35.659Z,32.57
2022-08-25T12:51:48.745Z,32.36
2022-08-25T13:02:13.780Z,32.27
2022-08-25T13:12:52.289Z,32.19
2022-08-25T13:23:01.061Z,32.99
2022-08-25T13:33:21.914Z,31.89
2022-08-25T13:43:28.515Z,31.64
2022-08-25T13:53:35.571Z,31.00
2022-08-25T14:03:45.661Z,31.41
2022-08-25T14:14:05.107Z,31.51
2022-08-25T14:24:11.777Z,30.85
2022-08-25T14:34:21.655Z,30.64
2022-08-25T14:44:27.950Z,30.35
2022-08-25T14:54:37.162Z,30.23
2022-08-25T15:04:49.158Z,30.02
2022-08-25T15:14:58.732Z,29.97
2022-08-25T15:25:05.805Z,29.72
2022-08-25T15:35:15.285Z,29.65
2022-08-25T15:45:22.051Z,29.36
2022-08-25T15:55:30.559Z,28.98
2022-08-25T16:05:47.929Z,28.83
2022-08-25T16:15:56.269Z,28.67
2022-08-25T16:26:06.388Z,28.57
2022-08-25T16:36:24.349Z,28.20
2022-08-25T16:46:33.638Z,27.86
2022-08-25T16:56:43.403Z,27.59
2022-08-25T17:06:52.160Z,27.41
2022-08-25T17:16:58.617Z,27.06
2022-08-25T17:27:06.211Z,26.68
2022-08-25T17:37:12.952Z,26.41
2022-08-25T17:47:20.709Z,26.15
2022-08-25T17:57:27.288Z,26.21
2022-08-25T18:07:33.983Z,26.12
2022-08-25T18:17:40.762Z,26.05
2022-08-25T18:27:47.290Z,25.85
2022-08-25T18:38:12.630Z,25.69
2022-08-25T18:48:21.408Z,25.35
2022-08-25T18:58:33.304Z,25.15
2022-08-25T19:08:41.865Z,25.15
2022-08-25T19:18:50.541Z,24.96
2022-08-25T19:28:58.817Z,24.85
2022-08-25T19:39:07.547Z,24.62
2022-08-25T19:59:43.439Z,24.35
2022-08-25T20:09:50.912Z,24.28
2022-08-25T20:20:01.880Z,24.04
2022-08-25T20:30:18.573Z,23.93
2022-08-25T20:40:29.406Z,23.86
2022-08-25T20:50:35.935Z,23.78
2022-08-25T21:00:45.534Z,23.71
2022-08-25T21:10:51.907Z,23.56
2022-08-25T21:20:58.253Z,23.54
2022-08-25T21:31:07.927Z,23.48
2022-08-25T21:41:17.534Z,23.41
2022-08-25T21:51:27.219Z,23.35
2022-08-25T22:01:33.708Z,23.21
2022-08-25T22:11:42.080Z,23.15
2022-08-25T22:21:48.535Z,23.16
2022-08-25T22:31:59.361Z,23.05
2022-08-25T22:42:08.675Z,23.03
2022-08-25T22:52:15.089Z,22.95
2022-08-25T23:02:21.412Z,22.85
2022-08-25T23:12:27.741Z,22.77
2022-08-25T23:22:34.054Z,22.75
2022-08-25T23:32:41.896Z,22.70
2022-08-25T23:42:48.598Z,22.61
2022-08-25T23:52:55.143Z,22.50
